Time;durP1;ratioP1;P1;durP2;ratioP2;P2;SDS_P1;SDS_P2;PMS_P1;PMS_P2;Temp;Humidity;BMP_temperature;BMP_pressure;BME280_temperature;BME280_humidity;BME280_pressure;Samples;Min_cycle;Max_cycle;Signal;HPM_P1;HPM_P2
2024/01/05 00:01:11;;;;;;;0.90;0.70;;;;;;;4.51;100.00;98949.42;104709;1262;72658;-54
2024/01/05 00:03:39;;;;;;;1.10;0.70;;;;;;;4.57;100.00;98953.13;106783;1260;66893;-55
2024/01/05 00:06:07;;;;;;;0.70;0.50;;;;;;;4.62;100.00;98955.59;104542;1257;71514;-56
2024/01/05 00:08:35;;;;;;;0.80;0.60;;;;;;;4.68;100.00;98958.75;104716;1254;61880;-58
2024/01/05 00:11:02;;;;;;;1.30;0.60;;;;;;;4.72;100.00;98963.23;105155;1261;60531;-55
2024/01/05 00:13:29;;;;;;;0.80;0.60;;;;;;;4.76;100.00;98968.58;104679;1261;74491;-55
2024/01/05 00:15:57;;;;;;;0.50;0.50;;;;;;;4.79;100.00;98975.36;104775;1256;67065;-55
2024/01/05 00:18:25;;;;;;;1.10;0.50;;;;;;;4.82;100.00;98981.50;104444;1256;74135;-57
2024/01/05 00:20:52;;;;;;;0.60;0.50;;;;;;;4.83;100.00;98983.09;105100;1254;61327;-54
2024/01/05 00:23:19;;;;;;;2.50;0.40;;;;;;;4.83;100.00;98984.31;104719;1260;60492;-54
2024/01/05 00:25:47;;;;;;;0.50;0.40;;;;;;;4.84;100.00;98989.23;104488;1254;72747;-57
2024/01/05 00:28:14;;;;;;;0.50;0.40;;;;;;;4.85;100.00;98987.23;104679;1254;65564;-57
2024/01/05 00:30:41;;;;;;;0.50;0.40;;;;;;;4.88;100.00;98997.10;104560;1261;73228;-55
2024/01/05 00:33:09;;;;;;;0.50;0.40;;;;;;;4.90;100.00;98996.14;106231;1254;61754;-52
2024/01/05 00:35:37;;;;;;;0.70;0.30;;;;;;;4.92;100.00;98999.95;104526;1254;60508;-54
2024/01/05 00:38:04;;;;;;;0.40;0.40;;;;;;;4.97;100.00;99010.99;104729;1254;73966;-58
2024/01/05 00:40:32;;;;;;;1.50;0.40;;;;;;;5.01;100.00;99015.48;104538;1257;65754;-56
2024/01/05 00:42:59;;;;;;;0.50;0.40;;;;;;;5.04;100.00;99026.36;104818;1257;72810;-56
2024/01/05 00:45:26;;;;;;;0.50;0.40;;;;;;;5.08;100.00;99034.05;104698;1257;61431;-54
2024/01/05 00:47:54;;;;;;;0.50;0.40;;;;;;;5.10;100.00;99036.80;104835;1261;60480;-55
2024/01/05 00:50:21;;;;;;;0.60;0.40;;;;;;;5.11;100.00;99042.48;104828;1254;72574;-55
2024/01/05 00:52:48;;;;;;;0.90;0.50;;;;;;;5.10;100.00;99049.43;105290;1261;66257;-57
2024/01/05 00:55:16;;;;;;;0.50;0.40;;;;;;;5.09;100.00;99056.23;104719;1257;71626;-58
2024/01/05 00:57:43;;;;;;;0.40;0.40;;;;;;;5.08;100.00;99055.91;104523;1259;60479;-57
2024/01/05 01:00:11;;;;;;;0.40;0.40;;;;;;;5.08;100.00;99055.40;104785;1254;60587;-56
2024/01/05 01:02:40;;;;;;;0.50;0.40;;;;;;;5.07;100.00;99058.95;104671;1262;74462;-57
2024/01/05 01:05:08;;;;;;;0.50;0.40;;;;;;;5.08;100.00;99059.29;104770;1254;66877;-55
2024/01/05 01:07:35;;;;;;;0.40;0.40;;;;;;;5.09;100.00;99057.84;104873;1256;71414;-56
2024/01/05 01:10:03;;;;;;;0.50;0.40;;;;;;;5.10;100.00;99063.16;104620;1254;60576;-58
2024/01/05 01:12:30;;;;;;;0.50;0.40;;;;;;;5.10;100.00;99061.55;104527;1254;60590;-54
2024/01/05 01:14:58;;;;;;;0.60;0.50;;;;;;;5.09;100.00;99061.73;104488;1254;72648;-55
2024/01/05 01:17:25;;;;;;;0.60;0.50;;;;;;;5.08;100.00;99063.39;105415;1260;66814;-56
2024/01/05 01:19:53;;;;;;;0.60;0.50;;;;;;;5.06;100.00;99066.82;105267;1257;73256;-54
2024/01/05 01:22:20;;;;;;;0.60;0.50;;;;;;;5.04;100.00;99066.01;104855;1257;61685;-53
2024/01/05 01:24:47;;;;;;;0.80;0.50;;;;;;;5.02;100.00;99065.37;104974;1261;61180;-57
2024/01/05 01:27:18;;;;;;;0.70;0.50;;;;;;;5.01;100.00;99069.17;104922;1254;73920;-55
2024/01/05 01:29:45;;;;;;;0.80;0.70;;;;;;;5.00;100.00;99071.31;104984;1259;66774;-55
2024/01/05 01:32:12;;;;;;;0.80;0.60;;;;;;;5.01;100.00;99074.16;104796;1257;72823;-55
2024/01/05 01:34:40;;;;;;;1.30;0.60;;;;;;;5.02;100.00;99077.83;104756;1258;61700;-57
2024/01/05 01:37:07;;;;;;;0.70;0.60;;;;;;;5.03;100.00;99078.67;104690;1255;60559;-58
2024/01/05 01:39:35;;;;;;;0.60;0.50;;;;;;;5.04;100.00;99084.67;104865;1261;72650;-55
2024/01/05 01:42:03;;;;;;;0.60;0.60;;;;;;;5.05;100.00;99082.52;105161;1257;67021;-56
2024/01/05 01:44:30;;;;;;;0.80;0.60;;;;;;;5.06;100.00;99083.91;104537;1254;72741;-56
2024/01/05 01:46:57;;;;;;;1.00;0.60;;;;;;;5.07;100.00;99082.98;104954;1257;60479;-55
2024/01/05 01:49:25;;;;;;;0.70;0.70;;;;;;;5.08;100.00;99086.52;104776;1254;60584;-57
2024/01/05 01:51:53;;;;;;;1.30;0.60;;;;;;;5.09;100.00;99086.29;104622;1262;72901;-56
2024/01/05 01:54:20;;;;;;;0.90;0.80;;;;;;;5.10;100.00;99089.27;104475;1257;66240;-56
2024/01/05 01:56:48;;;;;;;0.70;0.60;;;;;;;5.12;100.00;99092.92;106810;1257;71470;-58
2024/01/05 01:59:16;;;;;;;0.60;0.60;;;;;;;5.13;100.00;99095.91;105310;1258;60424;-56
2024/01/05 02:01:43;;;;;;;0.70;0.50;;;;;;;5.14;100.00;99094.27;104712;1262;61053;-55
2024/01/05 02:04:14;;;;;;;0.90;0.70;;;;;;;5.18;100.00;99100.02;104766;1257;72662;-54
2024/01/05 02:06:44;;;;;;;1.10;0.60;;;;;;;5.20;100.00;99107.92;104598;1262;66076;-55
2024/01/05 02:09:12;;;;;;;0.80;0.60;;;;;;;5.22;100.00;99110.36;104624;1260;70423;-55
2024/01/05 02:11:40;;;;;;;3.70;0.70;;;;;;;5.23;100.00;99114.92;108873;1254;58847;-57
2024/01/05 02:14:07;;;;;;;1.00;0.90;;;;;;;5.24;100.00;99118.80;108883;1256;60544;-57
2024/01/05 02:16:34;;;;;;;0.80;0.80;;;;;;;5.26;100.00;99116.61;108848;1257;71620;-56
2024/01/05 02:19:02;;;;;;;1.90;1.00;;;;;;;5.27;100.00;99121.52;108783;1254;67449;-57
2024/01/05 02:21:32;;;;;;;1.30;0.70;;;;;;;5.28;100.00;99124.69;108809;1254;72398;-55
2024/01/05 02:24:00;;;;;;;1.90;0.70;;;;;;;5.29;100.00;99131.79;108642;1257;60501;-54
2024/01/05 02:26:27;;;;;;;0.90;0.70;;;;;;;5.29;100.00;99134.06;108336;1255;59535;-55
2024/01/05 02:28:55;;;;;;;1.10;0.80;;;;;;;5.32;100.00;99139.52;104612;1254;72633;-54
2024/01/05 02:31:22;;;;;;;0.90;0.80;;;;;;;5.35;100.00;99144.77;105069;1254;67260;-54
2024/01/05 02:33:49;;;;;;;1.00;0.80;;;;;;;5.36;100.00;99148.27;104935;1257;72755;-52
2024/01/05 02:36:17;;;;;;;0.90;0.80;;;;;;;5.37;100.00;99146.80;105001;1260;60437;-57
2024/01/05 02:38:45;;;;;;;0.90;0.80;;;;;;;5.37;100.00;99149.66;104820;1254;60367;-54
2024/01/05 02:41:12;;;;;;;1.30;1.20;;;;;;;5.36;100.00;99154.10;104771;1260;73878;-53
2024/01/05 02:43:39;;;;;;;1.30;0.90;;;;;;;5.34;100.00;99153.30;104850;1257;67062;-55
2024/01/05 02:46:09;;;;;;;1.60;0.80;;;;;;;5.33;100.00;99157.26;104848;1260;72349;-54
2024/01/05 02:48:36;;;;;;;1.00;0.90;;;;;;;5.31;100.00;99160.51;104742;1256;60651;-55
2024/01/05 02:51:04;;;;;;;3.30;0.70;;;;;;;5.30;100.00;99164.14;104837;1261;60508;-53
2024/01/05 02:53:31;;;;;;;1.40;0.80;;;;;;;5.29;100.00;99167.34;104892;1260;72117;-52
2024/01/05 02:55:59;;;;;;;1.10;1.00;;;;;;;5.29;100.00;99168.95;104713;1262;66948;-57
2024/01/05 02:58:26;;;;;;;0.90;0.80;;;;;;;5.29;100.00;99173.21;104538;1254;72740;-56
2024/01/05 03:00:53;;;;;;;1.10;0.80;;;;;;;5.30;100.00;99175.67;105814;1259;60419;-55
2024/01/05 03:03:21;;;;;;;0.90;0.80;;;;;;;5.31;100.00;99182.78;104785;1254;60453;-56
2024/01/05 03:05:48;;;;;;;1.80;1.00;;;;;;;5.31;100.00;99183.48;104801;1262;73830;-55
2024/01/05 03:08:16;;;;;;;1.30;1.00;;;;;;;5.29;100.00;99183.19;105562;1261;67366;-56
2024/01/05 03:10:43;;;;;;;1.70;1.10;;;;;;;5.28;100.00;99189.48;104800;1257;72715;-55
2024/01/05 03:13:10;;;;;;;1.20;0.90;;;;;;;5.26;100.00;99185.12;104698;1258;60845;-55
2024/01/05 03:15:38;;;;;;;1.90;1.00;;;;;;;5.24;100.00;99185.34;104761;1256;62698;-55
2024/01/05 03:18:05;;;;;;;2.20;0.80;;;;;;;5.22;100.00;99190.02;104739;1262;74002;-54
2024/01/05 03:20:33;;;;;;;1.50;0.80;;;;;;;5.21;100.00;99193.27;104975;1254;65802;-55
2024/01/05 03:23:00;;;;;;;1.70;0.90;;;;;;;5.19;100.00;99195.10;104533;1260;72832;-56
2024/01/05 03:25:27;;;;;;;1.10;0.80;;;;;;;5.18;100.00;99197.48;106740;1256;62133;-55
2024/01/05 03:27:55;;;;;;;1.00;0.70;;;;;;;5.17;100.00;99195.04;104616;1257;60598;-56
2024/01/05 03:30:22;;;;;;;1.80;0.80;;;;;;;5.15;100.00;99191.88;104510;1254;72698;-55
2024/01/05 03:32:50;;;;;;;0.90;0.80;;;;;;;5.13;100.00;99193.72;104869;1256;66745;-55
2024/01/05 03:35:17;;;;;;;1.10;0.80;;;;;;;5.13;100.00;99192.51;104500;1259;71456;-55
2024/01/05 03:37:44;;;;;;;1.00;0.90;;;;;;;5.11;100.00;99192.04;104601;1254;60438;-57
2024/01/05 03:40:12;;;;;;;1.30;0.80;;;;;;;5.10;100.00;99191.73;104618;1262;60348;-55
2024/01/05 03:42:39;;;;;;;1.40;0.70;;;;;;;5.08;100.00;99190.72;104553;1256;72661;-54
2024/01/05 03:45:07;;;;;;;0.90;0.80;;;;;;;5.06;100.00;99192.56;105113;1260;67624;-54
2024/01/05 03:47:35;;;;;;;1.00;0.90;;;;;;;5.05;100.00;99196.33;105249;1260;73040;-57
2024/01/05 03:50:02;;;;;;;0.80;0.80;;;;;;;5.05;100.00;99199.73;104802;1262;60515;-56
2024/01/05 03:52:30;;;;;;;1.20;0.70;;;;;;;5.04;100.00;99200.08;104597;1255;60629;-57
2024/01/05 03:54:57;;;;;;;1.10;0.70;;;;;;;5.06;100.00;99203.95;104790;1256;73865;-56
2024/01/05 03:57:24;;;;;;;1.40;0.80;;;;;;;5.08;100.00;99206.19;104652;1261;66234;-55
2024/01/05 03:59:52;;;;;;;1.20;0.90;;;;;;;5.11;100.00;99210.02;104462;1260;72625;-53
2024/01/05 04:02:19;;;;;;;3.30;0.90;;;;;;;5.12;100.00;99212.97;104548;1260;60721;-57
2024/01/05 04:04:46;;;;;;;2.00;0.90;;;;;;;5.14;100.00;99218.95;104677;1257;60387;-56
2024/01/05 04:07:14;;;;;;;0.90;0.70;;;;;;;5.15;100.00;99224.80;104583;1260;73839;-56
2024/01/05 04:09:41;;;;;;;1.90;1.10;;;;;;;5.15;100.00;99227.47;104594;1269;67840;-53
2024/01/05 04:12:09;;;;;;;0.80;0.80;;;;;;;5.15;100.00;99230.83;104452;1257;71461;-55
2024/01/05 04:14:37;;;;;;;1.00;0.70;;;;;;;5.15;100.00;99230.30;105732;1260;62150;-55
2024/01/05 04:17:04;;;;;;;0.80;0.70;;;;;;;5.14;100.00;99235.13;104610;1260;60440;-57
2024/01/05 04:19:31;;;;;;;1.00;0.90;;;;;;;5.14;100.00;99235.15;104505;1263;74420;-56
2024/01/05 04:21:59;;;;;;;1.10;0.70;;;;;;;5.14;100.00;99239.59;104583;1262;65327;-55
2024/01/05 04:24:26;;;;;;;0.90;0.80;;;;;;;5.14;100.00;99242.42;104634;1260;72727;-57
2024/01/05 04:26:53;;;;;;;1.30;1.00;;;;;;;5.14;100.00;99241.90;104658;1255;61689;-54
2024/01/05 04:29:21;;;;;;;1.20;0.80;;;;;;;5.14;100.00;99240.48;104679;1257;60494;-56
2024/01/05 04:31:48;;;;;;;1.00;0.80;;;;;;;5.13;100.00;99245.14;104710;1260;73943;-55
2024/01/05 04:34:15;;;;;;;1.10;0.80;;;;;;;5.10;100.00;99248.29;104637;1254;67487;-54
2024/01/05 04:36:44;;;;;;;1.10;0.70;;;;;;;5.06;100.00;99248.23;105125;1260;71030;-55
2024/01/05 04:39:12;;;;;;;0.80;0.60;;;;;;;5.02;100.00;99250.31;105449;1260;60937;-55
2024/01/05 04:41:39;;;;;;;1.10;0.70;;;;;;;4.99;100.00;99247.59;105033;1262;60477;-55
2024/01/05 04:44:07;;;;;;;2.40;0.70;;;;;;;4.96;100.00;99253.17;104911;1260;73905;-55
2024/01/05 04:46:34;;;;;;;0.90;0.60;;;;;;;4.93;100.00;99255.24;104789;1261;64952;-53
2024/01/05 04:49:01;;;;;;;1.20;0.70;;;;;;;4.91;100.00;99260.11;104770;1260;72755;-54
2024/01/05 04:51:29;;;;;;;0.70;0.60;;;;;;;4.91;100.00;99267.23;104729;1260;60526;-57
2024/01/05 04:53:56;;;;;;;1.00;0.70;;;;;;;4.90;100.00;99274.73;104798;1263;60512;-53
2024/01/05 04:56:24;;;;;;;1.10;0.60;;;;;;;4.89;100.00;99277.94;104529;1256;396646;-55
2024/01/05 04:59:31;;;;;;;1.20;0.70;;;;;;;4.90;100.00;99363.62;102036;1291;601940;-52
2024/01/05 05:01:59;;;;;;;0.90;0.60;;;;;;;4.87;100.00;99422.73;104030;1267;61553;-58
2024/01/05 05:04:26;;;;;;;0.80;0.60;;;;;;;4.87;100.00;99407.80;104856;1272;61754;-53
2024/01/05 05:06:54;;;;;;;2.40;0.70;;;;;;;4.87;100.00;99401.40;104220;1266;71365;-55
2024/01/05 05:09:21;;;;;;;0.80;0.70;;;;;;;4.86;100.00;99392.36;107490;1268;65516;-54
2024/01/05 05:11:48;;;;;;;0.70;0.60;;;;;;;4.86;100.00;99384.54;104347;1272;71478;-54
2024/01/05 05:14:16;;;;;;;0.60;0.50;;;;;;;4.86;100.00;99384.71;104077;1270;155464;-53
2024/01/05 05:16:43;;;;;;;0.70;0.60;;;;;;;4.87;100.00;99383.98;104288;1270;60118;-58
2024/01/05 05:19:10;;;;;;;1.40;0.60;;;;;;;4.88;100.00;99383.60;104279;1268;72228;-55
2024/01/05 05:21:38;;;;;;;0.80;0.70;;;;;;;4.91;100.00;99389.74;107993;1263;66880;-56
2024/01/05 05:24:06;;;;;;;0.80;0.70;;;;;;;4.92;100.00;99387.92;104033;1271;74884;-55
2024/01/05 05:26:33;;;;;;;1.10;0.70;;;;;;;4.92;100.00;99393.08;104258;1270;60185;-55
2024/01/05 05:29:00;;;;;;;1.80;0.70;;;;;;;4.91;100.00;99392.93;104264;1266;59673;-56
2024/01/05 05:31:28;;;;;;;0.70;0.60;;;;;;;4.90;100.00;99394.57;104191;1264;73119;-55
2024/01/05 05:33:55;;;;;;;0.80;0.60;;;;;;;4.87;100.00;99388.23;108235;1265;65532;-56
2024/01/05 05:36:23;;;;;;;0.60;0.50;;;;;;;4.84;100.00;99392.44;108222;1265;71485;-56
2024/01/05 05:38:50;;;;;;;1.40;0.60;;;;;;;4.82;100.00;99390.39;108328;1264;60456;-57
2024/01/05 05:41:17;;;;;;;0.80;0.60;;;;;;;4.81;100.00;99392.55;105111;1265;60475;-55
2024/01/05 05:43:45;;;;;;;0.60;0.50;;;;;;;4.81;100.00;99390.76;104153;1269;73126;-56
2024/01/05 05:46:13;;;;;;;0.70;0.50;;;;;;;4.81;100.00;99394.31;104047;1266;67518;-52
2024/01/05 05:48:40;;;;;;;0.60;0.50;;;;;;;4.81;100.00;99400.71;103995;1267;72410;-58
2024/01/05 05:51:07;;;;;;;0.80;0.70;;;;;;;4.81;100.00;99403.90;104617;1268;59744;-56
2024/01/05 05:53:35;;;;;;;0.50;0.50;;;;;;;4.83;100.00;99410.62;103951;1264;60138;-55
2024/01/05 05:56:03;;;;;;;0.60;0.50;;;;;;;4.81;100.00;99409.61;104046;1270;73619;-54
2024/01/05 05:58:31;;;;;;;0.80;0.40;;;;;;;4.79;100.00;99412.13;104045;1264;66962;-54
2024/01/05 06:00:58;;;;;;;0.90;0.70;;;;;;;4.78;100.00;99416.42;104012;1264;73219;-54
2024/01/05 06:03:26;;;;;;;2.90;0.40;;;;;;;4.77;100.00;99420.54;106755;1264;61933;-56
2024/01/05 06:05:53;;;;;;;0.50;0.40;;;;;;;4.77;100.00;99424.10;104153;1264;60543;-55
2024/01/05 06:08:21;;;;;;;0.90;0.40;;;;;;;4.79;100.00;99428.86;104032;1264;73565;-58
2024/01/05 06:10:48;;;;;;;1.40;0.40;;;;;;;4.80;100.00;99434.69;104110;1265;64677;-54
2024/01/05 06:13:15;;;;;;;0.60;0.50;;;;;;;4.81;100.00;99431.28;103903;1267;70926;-54
2024/01/05 06:15:43;;;;;;;0.90;0.60;;;;;;;4.82;100.00;99431.43;104133;1266;59747;-57
2024/01/05 06:18:10;;;;;;;0.60;0.50;;;;;;;4.82;100.00;99436.41;104119;1264;59292;-54
2024/01/05 06:20:38;;;;;;;2.20;0.50;;;;;;;4.81;100.00;99441.23;104050;1266;72426;-57
2024/01/05 06:23:05;;;;;;;0.40;0.40;;;;;;;4.78;100.00;99440.61;104154;1264;64921;-56
2024/01/05 06:25:33;;;;;;;0.50;0.40;;;;;;;4.74;100.00;99441.09;103935;1263;72716;-57
2024/01/05 06:28:00;;;;;;;0.60;0.40;;;;;;;4.72;100.00;99439.55;104090;1266;60615;-55
2024/01/05 06:30:28;;;;;;;0.60;0.40;;;;;;;4.73;100.00;99444.52;106143;1263;59542;-53
2024/01/05 06:32:55;;;;;;;0.60;0.40;;;;;;;4.75;100.00;99444.11;104074;1266;75321;-54
2024/01/05 06:35:22;;;;;;;0.50;0.50;;;;;;;4.76;100.00;99446.92;104659;1269;66765;-55
2024/01/05 06:37:50;;;;;;;0.80;0.50;;;;;;;4.77;100.00;99455.77;103911;1269;73703;-56
2024/01/05 06:40:17;;;;;;;0.70;0.40;;;;;;;4.78;100.00;99457.69;104072;1270;59689;-54
2024/01/05 06:42:45;;;;;;;0.70;0.50;;;;;;;4.76;100.00;99465.55;104502;1265;59644;-54
2024/01/05 06:45:12;;;;;;;0.60;0.40;;;;;;;4.75;100.00;99466.50;104137;1264;71922;-54
2024/01/05 06:47:40;;;;;;;0.90;0.50;;;;;;;4.74;100.00;99469.20;104845;1253;67159;-54
2024/01/05 06:50:07;;;;;;;1.20;0.50;;;;;;;4.72;100.00;99468.17;104764;1254;71463;-55
2024/01/05 06:52:35;;;;;;;0.80;0.50;;;;;;;4.71;100.00;99471.77;104949;1254;61135;-53
2024/01/05 06:55:03;;;;;;;0.70;0.50;;;;;;;4.69;100.00;99476.43;104716;1253;59735;-53
2024/01/05 06:57:31;;;;;;;1.40;0.50;;;;;;;4.68;100.00;99479.33;106310;1255;71047;-58
2024/01/05 06:59:59;;;;;;;0.80;0.50;;;;;;;4.66;100.00;99483.98;106321;1253;65947;-53
2024/01/05 07:02:28;;;;;;;0.90;0.50;;;;;;;4.65;100.00;99487.39;105491;1255;71377;-54
2024/01/05 07:04:55;;;;;;;0.60;0.50;;;;;;;4.63;100.00;99493.85;104716;1254;59539;-57
2024/01/05 07:07:23;;;;;;;1.90;0.40;;;;;;;4.62;100.00;99500.63;105635;1253;59579;-56
2024/01/05 07:09:51;;;;;;;0.80;0.50;;;;;;;4.61;100.00;99508.48;104873;1253;71859;-56
2024/01/05 07:12:19;;;;;;;0.40;0.40;;;;;;;4.60;100.00;99512.77;104725;1253;67498;-56
2024/01/05 07:14:46;;;;;;;1.00;0.80;;;;;;;4.60;100.00;99519.33;104648;1254;72853;-54
2024/01/05 07:17:14;;;;;;;1.00;0.40;;;;;;;4.61;100.00;99522.33;104831;1258;61753;-56
2024/01/05 07:19:41;;;;;;;4.00;0.50;;;;;;;4.63;100.00;99532.07;104823;1258;59671;-56
2024/01/05 07:22:09;;;;;;;0.90;0.50;;;;;;;4.65;100.00;99534.51;104856;1253;73979;-57
2024/01/05 07:24:37;;;;;;;0.80;0.50;;;;;;;4.66;100.00;99543.71;104796;1258;65834;-54
2024/01/05 07:27:05;;;;;;;0.90;0.60;;;;;;;4.67;100.00;99549.58;104918;1255;71658;-53
2024/01/05 07:29:32;;;;;;;0.90;0.50;;;;;;;4.63;100.00;99560.67;105032;1254;59791;-55
2024/01/05 07:31:59;;;;;;;0.40;0.30;;;;;;;4.56;100.00;99565.30;104859;1253;60476;-55
2024/01/05 07:34:27;;;;;;;0.40;0.30;;;;;;;4.50;100.00;99574.00;105657;1254;71828;-56
2024/01/05 07:36:54;;;;;;;0.30;0.20;;;;;;;4.44;100.00;99579.66;105234;1258;65808;-57
2024/01/05 07:39:22;;;;;;;0.20;0.10;;;;;;;4.40;100.00;99586.36;104899;1253;71561;-55
2024/01/05 07:41:49;;;;;;;0.30;0.20;;;;;;;4.38;100.00;99590.84;104930;1253;60813;-55
2024/01/05 07:44:17;;;;;;;0.30;0.20;;;;;;;4.37;100.00;99601.52;104762;1256;59638;-54
2024/01/05 07:46:45;;;;;;;0.30;0.20;;;;;;;4.37;100.00;99604.02;104842;1253;71778;-54
2024/01/05 07:49:12;;;;;;;0.40;0.20;;;;;;;4.34;100.00;99606.92;104774;1253;64668;-58
2024/01/05 07:51:40;;;;;;;0.30;0.30;;;;;;;4.30;100.00;99613.95;104837;1255;73135;-55
2024/01/05 07:54:08;;;;;;;0.30;0.20;;;;;;;4.25;100.00;99616.77;106455;1256;60917;-58
2024/01/05 07:56:37;;;;;;;0.20;0.20;;;;;;;4.21;100.00;99615.78;104924;1254;59967;-56
2024/01/05 07:59:05;;;;;;;0.20;0.10;;;;;;;4.17;100.00;99619.08;107063;1254;73077;-54
2024/01/05 08:01:32;;;;;;;0.60;0.20;;;;;;;4.14;100.00;99625.92;104878;1257;67051;-56
2024/01/05 08:04:00;;;;;;;1.10;0.20;;;;;;;4.11;100.00;99629.52;108974;1253;71659;-55
2024/01/05 08:06:27;;;;;;;0.40;0.20;;;;;;;4.11;100.00;99634.84;108862;1257;61797;-56
2024/01/05 08:08:55;;;;;;;0.20;0.20;;;;;;;4.13;100.00;99638.02;109095;1253;59026;-57
2024/01/05 08:11:22;;;;;;;0.30;0.30;;;;;;;4.11;100.00;99645.50;109067;1253;71795;-56
2024/01/05 08:13:51;;;;;;;0.40;0.30;;;;;;;4.09;100.00;99651.21;108982;1253;65728;-56
2024/01/05 08:16:19;;;;;;;0.30;0.30;;;;;;;4.07;100.00;99652.17;108983;1254;71816;-57
2024/01/05 08:18:46;;;;;;;0.30;0.20;;;;;;;4.03;100.00;99652.45;108929;1254;60858;-55
2024/01/05 08:21:14;;;;;;;0.50;0.30;;;;;;;3.99;100.00;99655.91;109046;1254;60174;-59
2024/01/05 08:23:41;;;;;;;1.30;0.20;;;;;;;3.95;100.00;99658.14;108948;1254;73001;-56
2024/01/05 08:26:09;;;;;;;0.30;0.20;;;;;;;3.91;100.00;99663.05;105215;1254;64776;-53
2024/01/05 08:28:36;;;;;;;0.20;0.20;;;;;;;3.88;100.00;99662.94;104680;1258;73947;-54
2024/01/05 08:31:03;;;;;;;0.20;0.20;;;;;;;3.85;100.00;99663.52;104881;1257;59670;-58
2024/01/05 08:33:35;;;;;;;0.20;0.20;;;;;;;3.84;100.00;99668.85;105582;1253;60081;-56
2024/01/05 08:36:02;;;;;;;0.50;0.30;;;;;;;3.83;100.00;99675.63;108711;1253;75198;-56
2024/01/05 08:38:30;;;;;;;0.70;0.30;;;;;;;3.82;100.00;99679.55;105025;1253;66826;-56
2024/01/05 08:40:57;;;;;;;0.50;0.30;;;;;;;3.81;100.00;99688.30;104854;1257;72717;-53
2024/01/05 08:43:25;;;;;;;0.20;0.20;;;;;;;3.78;100.00;99692.43;104820;1257;60131;-51
2024/01/05 08:45:53;;;;;;;0.20;0.20;;;;;;;3.73;100.00;99695.91;106570;1254;59731;-54
2024/01/05 08:48:20;;;;;;;3.10;0.30;;;;;;;3.70;100.00;99698.82;105141;1258;71528;-54
2024/01/05 08:50:48;;;;;;;0.30;0.30;;;;;;;3.69;100.00;99706.11;108715;1253;66367;-55
2024/01/05 08:53:15;;;;;;;0.40;0.30;;;;;;;3.71;100.00;99709.09;104973;1254;74531;-54
2024/01/05 08:55:43;;;;;;;0.70;0.40;;;;;;;3.73;100.00;99716.15;104813;1257;60526;-57
2024/01/05 08:58:10;;;;;;;0.80;0.30;;;;;;;3.72;100.00;99717.95;104677;1253;62091;-59
2024/01/05 09:00:37;;;;;;;0.50;0.40;;;;;;;3.68;100.00;99719.61;105006;1253;71834;-56
2024/01/05 09:03:05;;;;;;;0.40;0.40;;;;;;;3.63;100.00;99725.59;108371;1255;66932;-56
2024/01/05 09:05:32;;;;;;;0.40;0.30;;;;;;;3.58;100.00;99723.21;104763;1253;72511;-56
2024/01/05 09:08:00;;;;;;;0.60;0.30;;;;;;;3.54;100.00;99724.70;104856;1258;60928;-57
2024/01/05 09:10:27;;;;;;;0.80;0.40;;;;;;;3.53;100.00;99724.02;104620;1254;60976;-59
2024/01/05 09:12:55;;;;;;;0.40;0.20;;;;;;;3.53;100.00;99720.63;104806;1253;72645;-57
2024/01/05 09:15:22;;;;;;;0.30;0.30;;;;;;;3.53;100.00;99720.48;104803;1259;67035;-56
2024/01/05 09:17:51;;;;;;;0.80;0.50;;;;;;;3.52;100.00;99723.15;104941;1254;72822;-58
2024/01/05 09:20:19;;;;;;;0.40;0.40;;;;;;;3.50;100.00;99721.75;104829;1254;60559;-55
2024/01/05 09:22:46;;;;;;;1.00;0.40;;;;;;;3.48;100.00;99722.70;104800;1254;60460;-53
2024/01/05 09:25:13;;;;;;;0.60;0.30;;;;;;;3.44;100.00;99725.98;104759;1259;72539;-55
2024/01/05 09:27:41;;;;;;;0.40;0.40;;;;;;;3.41;100.00;99726.38;104547;1255;65255;-56
2024/01/05 09:30:08;;;;;;;0.50;0.40;;;;;;;3.39;100.00;99728.56;104824;1254;71364;-59
2024/01/05 09:32:36;;;;;;;0.50;0.30;;;;;;;3.38;100.00;99731.23;105095;1255;60528;-56
2024/01/05 09:35:04;;;;;;;0.60;0.40;;;;;;;3.38;100.00;99733.90;104676;1253;60423;-56
2024/01/05 09:37:32;;;;;;;0.60;0.40;;;;;;;3.37;100.00;99733.38;105004;1253;74147;-52
2024/01/05 09:39:59;;;;;;;0.50;0.30;;;;;;;3.38;100.00;99736.20;104598;1259;65536;-57
2024/01/05 09:42:26;;;;;;;1.10;0.50;;;;;;;3.38;100.00;99741.00;104767;1254;71411;-56
2024/01/05 09:44:54;;;;;;;0.60;0.50;;;;;;;3.35;100.00;99743.70;104699;1254;60778;-54
2024/01/05 09:47:21;;;;;;;0.60;0.50;;;;;;;3.31;100.00;99743.79;104876;1259;60640;-57
2024/01/05 09:49:49;;;;;;;1.30;0.60;;;;;;;3.27;100.00;99742.81;105011;1256;74233;-55
2024/01/05 09:52:18;;;;;;;0.50;0.40;;;;;;;3.25;100.00;99744.23;107844;1254;67117;-55
2024/01/05 09:54:46;;;;;;;0.50;0.40;;;;;;;3.25;100.00;99748.67;106534;1255;71749;-53
2024/01/05 09:57:16;;;;;;;0.50;0.40;;;;;;;3.27;100.00;99752.55;104963;1254;60572;-57
2024/01/05 09:59:47;;;;;;;0.70;0.50;;;;;;;3.27;100.00;99757.50;104827;1254;60507;-55
2024/01/05 10:02:17;;;;;;;0.50;0.40;;;;;;;3.28;100.00;99766.02;104744;1253;74300;-57
2024/01/05 10:04:44;;;;;;;0.70;0.50;;;;;;;3.24;100.00;99759.16;106630;1255;67038;-56
2024/01/05 10:07:11;;;;;;;1.40;0.60;;;;;;;3.21;100.00;99761.19;105398;1256;72843;-58
2024/01/05 10:09:49;;;;;;;1.80;0.50;;;;;;;3.19;100.00;99758.73;104646;1253;60951;-54
2024/01/05 10:12:17;;;;;;;0.70;0.50;;;;;;;3.17;100.00;99763.38;104491;1253;60527;-57
2024/01/05 10:14:46;;;;;;;0.80;0.50;;;;;;;3.15;100.00;99764.64;105338;1256;73923;-56
2024/01/05 10:17:15;;;;;;;0.70;0.50;;;;;;;3.15;100.00;99767.67;104653;1253;67799;-56
2024/01/05 10:19:43;;;;;;;0.50;0.40;;;;;;;3.15;100.00;99766.80;105426;1253;72938;-59
2024/01/05 10:22:12;;;;;;;0.50;0.40;;;;;;;3.20;100.00;99772.91;104989;1259;60568;-53
2024/01/05 10:24:40;;;;;;;1.00;0.50;;;;;;;3.23;100.00;99781.18;105855;1254;60413;-60
2024/01/05 10:27:09;;;;;;;1.10;0.40;;;;;;;3.23;100.00;99786.52;104862;1259;74353;-56
2024/01/05 10:29:38;;;;;;;0.90;0.40;;;;;;;3.21;100.00;99789.21;105577;1254;65738;-56
2024/01/05 10:32:16;;;;;;;1.00;0.60;;;;;;;3.16;100.00;99789.63;104710;1254;72634;-57
2024/01/05 10:34:45;;;;;;;0.70;0.60;;;;;;;3.11;100.00;99795.41;104933;1254;60557;-55
2024/01/05 10:37:17;;;;;;;0.70;0.50;;;;;;;3.07;100.00;99793.34;106367;1253;60458;-57
2024/01/05 10:39:46;;;;;;;0.50;0.40;;;;;;;3.06;100.00;99796.21;104988;1253;72646;-55
2024/01/05 10:42:19;;;;;;;0.50;0.50;;;;;;;3.06;100.00;99797.27;104771;1255;65989;-57
2024/01/05 10:44:54;;;;;;;1.00;0.40;;;;;;;3.07;100.00;99807.52;104849;1260;70948;-56
2024/01/05 10:47:25;;;;;;;1.00;0.60;;;;;;;3.08;100.00;99812.65;105007;1253;60582;-55
2024/01/05 10:49:55;;;;;;;1.90;0.50;;;;;;;3.08;100.00;99817.08;108852;1253;59281;-55
2024/01/05 10:52:28;;;;;;;0.60;0.40;;;;;;;3.06;100.00;99816.44;105815;1254;73919;-55
2024/01/05 10:54:55;;;;;;;0.60;0.40;;;;;;;3.06;100.00;99823.35;104940;1253;66924;-54
2024/01/05 10:57:25;;;;;;;0.80;0.50;;;;;;;3.00;100.00;99821.82;104983;1259;70577;-54
2024/01/05 10:59:54;;;;;;;0.60;0.50;;;;;;;2.94;100.00;99828.14;104933;1258;60904;-56
2024/01/05 11:02:40;;;;;;;0.80;0.40;;;;;;;2.87;100.00;99823.64;104894;1258;60471;-56
2024/01/05 11:05:10;;;;;;;0.40;0.40;;;;;;;2.80;100.00;99840.23;104818;1255;74280;-58
2024/01/05 11:07:38;;;;;;;0.50;0.40;;;;;;;2.75;100.00;99835.52;104838;1258;68162;-52
2024/01/05 11:10:15;;;;;;;0.70;0.50;;;;;;;2.72;100.00;99836.65;106567;1256;70775;-56
2024/01/05 11:13:00;;;;;;;0.60;0.50;;;;;;;2.68;100.00;99843.08;104788;1256;60550;-56
2024/01/05 11:15:51;;;;;;;1.30;0.60;;;;;;;2.64;100.00;99855.19;104912;1254;60516;-55
2024/01/05 11:18:42;;;;;;;0.80;0.70;;;;;;;2.56;100.00;99854.95;108950;1254;72499;-57
2024/01/05 11:21:25;;;;;;;0.90;0.50;;;;;;;2.50;100.00;99856.09;109014;1254;67935;-55
2024/01/05 11:23:54;;;;;;;0.70;0.50;;;;;;;2.43;100.00;99854.42;108927;1253;74884;-57
2024/01/05 11:26:35;;;;;;;0.80;0.60;;;;;;;2.37;100.00;99850.61;108811;1254;60990;-55
2024/01/05 11:29:03;;;;;;;0.70;0.60;;;;;;;2.34;100.00;99862.34;108787;1254;60168;-55